sensor_id;sensor_type;location;lat;lon;timestamp;temperature;humidity
51619;DHT22;38518;53.164;5.430;2023-01-29T00:02:23;4.60;99.90
51619;DHT22;38518;53.164;5.430;2023-01-29T00:04:49;4.60;99.90
51619;DHT22;38518;53.164;5.430;2023-01-29T00:07:15;5.60;99.90
51619;DHT22;38518;53.164;5.430;2023-01-29T00:09:41;4.80;99.90
51619;DHT22;38518;53.164;5.430;2023-01-29T00:12:06;4.60;99.90
51619;DHT22;38518;53.164;5.430;2023-01-29T00:14:33;4.50;99.90
51619;DHT22;38518;53.164;5.430;2023-01-29T00:17:00;4.50;99.90
51619;DHT22;38518;53.164;5.430;2023-01-29T00:19:26;4.60;99.90
51619;DHT22;38518;53.164;5.430;2023-01-29T00:21:52;4.80;99.90
51619;DHT22;38518;53.164;5.430;2023-01-29T00:24:17;4.90;99.90
51619;DHT22;38518;53.164;5.430;2023-01-29T00:26:43;4.60;99.90
51619;DHT22;38518;53.164;5.430;2023-01-29T00:29:09;4.40;99.90
51619;DHT22;38518;53.164;5.430;2023-01-29T00:31:35;5.00;99.90
51619;DHT22;38518;53.164;5.430;2023-01-29T00:34:00;4.80;99.90
51619;DHT22;38518;53.164;5.430;2023-01-29T00:36:26;4.60;99.90
51619;DHT22;38518;53.164;5.430;2023-01-29T00:38:58;4.70;99.90
51619;DHT22;38518;53.164;5.430;2023-01-29T00:41:29;4.70;99.90
51619;DHT22;38518;53.164;5.430;2023-01-29T00:44:14;5.00;99.90
51619;DHT22;38518;53.164;5.430;2023-01-29T00:46:58;5.00;99.90
51619;DHT22;38518;53.164;5.430;2023-01-29T00:49:25;4.70;99.90
51619;DHT22;38518;53.164;5.430;2023-01-29T00:51:50;4.70;99.90
51619;DHT22;38518;53.164;5.430;2023-01-29T00:54:35;3.60;99.90
51619;DHT22;38518;53.164;5.430;2023-01-29T00:57:02;4.70;99.90
51619;DHT22;38518;53.164;5.430;2023-01-29T00:59:29;5.60;99.90
51619;DHT22;38518;53.164;5.430;2023-01-29T01:01:54;4.70;99.90
51619;DHT22;38518;53.164;5.430;2023-01-29T01:04:39;5.00;99.90
51619;DHT22;38518;53.164;5.430;2023-01-29T01:07:05;4.70;99.90
51619;DHT22;38518;53.164;5.430;2023-01-29T01:09:33;5.20;99.90
51619;DHT22;38518;53.164;5.430;2023-01-29T01:12:17;4.70;99.90
51619;DHT22;38518;53.164;5.430;2023-01-29T01:14:43;4.90;99.90
51619;DHT22;38518;53.164;5.430;2023-01-29T01:17:09;4.70;99.90
51619;DHT22;38518;53.164;5.430;2023-01-29T01:19:35;4.80;99.90
51619;DHT22;38518;53.164;5.430;2023-01-29T01:22:01;5.40;99.90
51619;DHT22;38518;53.164;5.430;2023-01-29T01:24:29;5.80;99.90
51619;DHT22;38518;53.164;5.430;2023-01-29T01:26:55;4.60;99.90
51619;DHT22;38518;53.164;5.430;2023-01-29T01:29:21;4.70;99.90
51619;DHT22;38518;53.164;5.430;2023-01-29T01:31:47;5.00;99.90
51619;DHT22;38518;53.164;5.430;2023-01-29T01:34:12;4.70;99.90
51619;DHT22;38518;53.164;5.430;2023-01-29T01:36:38;4.70;99.90
51619;DHT22;38518;53.164;5.430;2023-01-29T01:39:04;4.70;99.90
51619;DHT22;38518;53.164;5.430;2023-01-29T01:41:30;4.70;99.90
51619;DHT22;38518;53.164;5.430;2023-01-29T01:44:01;5.00;99.90
51619;DHT22;38518;53.164;5.430;2023-01-29T01:46:33;4.90;99.90
51619;DHT22;38518;53.164;5.430;2023-01-29T01:49:07;4.70;99.90
51619;DHT22;38518;53.164;5.430;2023-01-29T01:51:39;4.90;99.90
51619;DHT22;38518;53.164;5.430;2023-01-29T01:54:10;5.20;99.90
51619;DHT22;38518;53.164;5.430;2023-01-29T01:56:44;4.70;99.90
51619;DHT22;38518;53.164;5.430;2023-01-29T01:59:14;4.60;99.90
51619;DHT22;38518;53.164;5.430;2023-01-29T02:01:43;4.60;99.90
51619;DHT22;38518;53.164;5.430;2023-01-29T02:04:22;5.00;99.90
51619;DHT22;38518;53.164;5.430;2023-01-29T02:07:10;5.10;99.90
51619;DHT22;38518;53.164;5.430;2023-01-29T02:10:07;5.50;99.90
51619;DHT22;38518;53.164;5.430;2023-01-29T02:12:33;4.70;99.90
51619;DHT22;38518;53.164;5.430;2023-01-29T02:15:01;4.90;99.90
51619;DHT22;38518;53.164;5.430;2023-01-29T02:17:27;4.70;99.90
51619;DHT22;38518;53.164;5.430;2023-01-29T02:20:11;5.10;99.90
51619;DHT22;38518;53.164;5.430;2023-01-29T02:42:39;4.70;99.90
51619;DHT22;38518;53.164;5.430;2023-01-29T02:45:09;4.70;99.90
51619;DHT22;38518;53.164;5.430;2023-01-29T02:47:41;4.70;99.90
51619;DHT22;38518;53.164;5.430;2023-01-29T02:50:20;4.70;99.90
51619;DHT22;38518;53.164;5.430;2023-01-29T02:55:34;4.70;99.90
51619;DHT22;38518;53.164;5.430;2023-01-29T02:58:26;4.70;99.90
51619;DHT22;38518;53.164;5.430;2023-01-29T03:00:58;4.70;99.90
51619;DHT22;38518;53.164;5.430;2023-01-29T03:03:36;5.10;99.90
51619;DHT22;38518;53.164;5.430;2023-01-29T03:06:09;4.70;99.90
51619;DHT22;38518;53.164;5.430;2023-01-29T03:08:46;6.20;99.90
51619;DHT22;38518;53.164;5.430;2023-01-29T03:11:16;4.80;99.90
51619;DHT22;38518;53.164;5.430;2023-01-29T03:14:02;4.90;99.90
51619;DHT22;38518;53.164;5.430;2023-01-29T03:19:29;4.60;99.90
51619;DHT22;38518;53.164;5.430;2023-01-29T03:21:57;4.60;99.90
51619;DHT22;38518;53.164;5.430;2023-01-29T03:24:39;4.90;99.90
51619;DHT22;38518;53.164;5.430;2023-01-29T03:27:28;4.70;99.90
51619;DHT22;38518;53.164;5.430;2023-01-29T03:30:16;4.70;99.90
51619;DHT22;38518;53.164;5.430;2023-01-29T03:33:04;5.20;99.90
51619;DHT22;38518;53.164;5.430;2023-01-29T03:35:35;4.60;99.90
51619;DHT22;38518;53.164;5.430;2023-01-29T03:38:03;5.10;99.90
51619;DHT22;38518;53.164;5.430;2023-01-29T03:40:48;4.70;99.90
51619;DHT22;38518;53.164;5.430;2023-01-29T03:46:23;4.70;99.90
51619;DHT22;38518;53.164;5.430;2023-01-29T03:51:57;4.70;99.90
51619;DHT22;38518;53.164;5.430;2023-01-29T03:54:36;3.90;99.90
51619;DHT22;38518;53.164;5.430;2023-01-29T04:00:18;4.70;99.90
51619;DHT22;38518;53.164;5.430;2023-01-29T04:02:47;5.50;99.90
51619;DHT22;38518;53.164;5.430;2023-01-29T04:05:24;5.70;99.90
51619;DHT22;38518;53.164;5.430;2023-01-29T04:08:00;5.30;99.90
51619;DHT22;38518;53.164;5.430;2023-01-29T04:10:28;5.70;99.90
51619;DHT22;38518;53.164;5.430;2023-01-29T04:13:04;4.70;99.90
51619;DHT22;38518;53.164;5.430;2023-01-29T04:15:34;4.80;99.90
51619;DHT22;38518;53.164;5.430;2023-01-29T04:18:01;4.70;99.90
51619;DHT22;38518;53.164;5.430;2023-01-29T04:20:27;5.80;99.90
51619;DHT22;38518;53.164;5.430;2023-01-29T04:22:53;5.60;99.90
51619;DHT22;38518;53.164;5.430;2023-01-29T04:25:25;4.90;99.90
51619;DHT22;38518;53.164;5.430;2023-01-29T04:28:19;5.60;99.90
51619;DHT22;38518;53.164;5.430;2023-01-29T04:42:32;4.70;99.90
51619;DHT22;38518;53.164;5.430;2023-01-29T04:48:02;4.70;99.90
51619;DHT22;38518;53.164;5.430;2023-01-29T04:53:37;4.70;99.90
51619;DHT22;38518;53.164;5.430;2023-01-29T04:56:20;4.70;99.90
51619;DHT22;38518;53.164;5.430;2023-01-29T04:58:54;5.60;99.90
51619;DHT22;38518;53.164;5.430;2023-01-29T05:01:26;4.90;99.90
51619;DHT22;38518;53.164;5.430;2023-01-29T05:03:55;4.70;99.90
51619;DHT22;38518;53.164;5.430;2023-01-29T05:06:22;5.00;99.90
51619;DHT22;38518;53.164;5.430;2023-01-29T05:08:50;4.80;99.90
51619;DHT22;38518;53.164;5.430;2023-01-29T05:11:17;4.70;99.90
51619;DHT22;38518;53.164;5.430;2023-01-29T05:13:43;4.70;99.90
51619;DHT22;38518;53.164;5.430;2023-01-29T05:16:27;5.40;99.90
51619;DHT22;38518;53.164;5.430;2023-01-29T05:18:54;4.70;99.90
51619;DHT22;38518;53.164;5.430;2023-01-29T05:21:20;4.60;99.90
51619;DHT22;38518;53.164;5.430;2023-01-29T05:24:11;4.80;99.90
51619;DHT22;38518;53.164;5.430;2023-01-29T05:26:39;4.60;99.90
51619;DHT22;38518;53.164;5.430;2023-01-29T05:29:23;4.60;99.90
51619;DHT22;38518;53.164;5.430;2023-01-29T05:31:49;4.50;99.90
51619;DHT22;38518;53.164;5.430;2023-01-29T05:34:15;4.50;99.90
51619;DHT22;38518;53.164;5.430;2023-01-29T05:36:40;4.80;99.90
51619;DHT22;38518;53.164;5.430;2023-01-29T05:39:06;4.50;99.90
51619;DHT22;38518;53.164;5.430;2023-01-29T05:41:32;4.40;99.90
51619;DHT22;38518;53.164;5.430;2023-01-29T05:43:57;4.60;99.90
51619;DHT22;38518;53.164;5.430;2023-01-29T05:46:23;5.40;99.90
51619;DHT22;38518;53.164;5.430;2023-01-29T05:48:51;4.50;99.90
51619;DHT22;38518;53.164;5.430;2023-01-29T05:51:17;4.50;99.90
51619;DHT22;38518;53.164;5.430;2023-01-29T05:53:43;4.30;99.90
51619;DHT22;38518;53.164;5.430;2023-01-29T05:56:09;4.40;99.90
51619;DHT22;38518;53.164;5.430;2023-01-29T05:58:34;6.00;99.90
51619;DHT22;38518;53.164;5.430;2023-01-29T06:01:10;4.50;99.90
51619;DHT22;38518;53.164;5.430;2023-01-29T06:03:36;4.50;99.90
51619;DHT22;38518;53.164;5.430;2023-01-29T06:06:02;4.70;99.90
51619;DHT22;38518;53.164;5.430;2023-01-29T06:08:28;4.40;99.90
51619;DHT22;38518;53.164;5.430;2023-01-29T06:10:54;2.70;99.90
51619;DHT22;38518;53.164;5.430;2023-01-29T06:13:20;4.80;99.90
51619;DHT22;38518;53.164;5.430;2023-01-29T06:15:45;5.10;99.90
51619;DHT22;38518;53.164;5.430;2023-01-29T06:18:11;4.30;99.90
51619;DHT22;38518;53.164;5.430;2023-01-29T06:20:38;3.10;99.90
51619;DHT22;38518;53.164;5.430;2023-01-29T06:23:03;4.60;99.90
51619;DHT22;38518;53.164;5.430;2023-01-29T06:25:30;5.70;99.90
51619;DHT22;38518;53.164;5.430;2023-01-29T06:27:55;4.40;99.90
51619;DHT22;38518;53.164;5.430;2023-01-29T06:30:21;4.50;99.90
51619;DHT22;38518;53.164;5.430;2023-01-29T06:32:47;4.90;99.90
51619;DHT22;38518;53.164;5.430;2023-01-29T06:35:13;4.40;99.90
51619;DHT22;38518;53.164;5.430;2023-01-29T06:37:39;4.50;99.90
51619;DHT22;38518;53.164;5.430;2023-01-29T06:40:05;5.70;99.90
51619;DHT22;38518;53.164;5.430;2023-01-29T06:42:33;4.50;99.90
51619;DHT22;38518;53.164;5.430;2023-01-29T06:44:59;4.60;99.90
51619;DHT22;38518;53.164;5.430;2023-01-29T06:47:26;4.90;99.90
51619;DHT22;38518;53.164;5.430;2023-01-29T06:49:51;5.50;99.90
51619;DHT22;38518;53.164;5.430;2023-01-29T06:52:17;5.60;99.90
51619;DHT22;38518;53.164;5.430;2023-01-29T06:54:43;5.40;99.90
51619;DHT22;38518;53.164;5.430;2023-01-29T06:57:09;4.50;99.90
51619;DHT22;38518;53.164;5.430;2023-01-29T06:59:35;4.70;99.90
51619;DHT22;38518;53.164;5.430;2023-01-29T07:02:02;4.90;99.90
51619;DHT22;38518;53.164;5.430;2023-01-29T07:04:28;4.90;99.90
51619;DHT22;38518;53.164;5.430;2023-01-29T07:06:53;4.70;99.90
51619;DHT22;38518;53.164;5.430;2023-01-29T07:09:19;4.80;99.90
51619;DHT22;38518;53.164;5.430;2023-01-29T07:11:45;4.50;99.90
51619;DHT22;38518;53.164;5.430;2023-01-29T07:14:12;5.80;99.90
51619;DHT22;38518;53.164;5.430;2023-01-29T07:16:38;4.80;99.90
51619;DHT22;38518;53.164;5.430;2023-01-29T07:19:03;4.60;99.90
51619;DHT22;38518;53.164;5.430;2023-01-29T07:21:29;4.50;99.90
51619;DHT22;38518;53.164;5.430;2023-01-29T07:23:55;4.60;99.90
51619;DHT22;38518;53.164;5.430;2023-01-29T07:26:21;6.10;99.90
51619;DHT22;38518;53.164;5.430;2023-01-29T07:28:47;5.90;99.90
51619;DHT22;38518;53.164;5.430;2023-01-29T07:31:13;4.60;99.90
51619;DHT22;38518;53.164;5.430;2023-01-29T07:33:41;5.00;99.90
51619;DHT22;38518;53.164;5.430;2023-01-29T07:36:08;5.40;99.90
51619;DHT22;38518;53.164;5.430;2023-01-29T07:38:35;4.50;99.90
51619;DHT22;38518;53.164;5.430;2023-01-29T07:41:01;4.50;99.90
51619;DHT22;38518;53.164;5.430;2023-01-29T07:43:27;4.90;99.90
51619;DHT22;38518;53.164;5.430;2023-01-29T07:45:53;4.50;99.90
51619;DHT22;38518;53.164;5.430;2023-01-29T07:48:18;4.50;99.90
51619;DHT22;38518;53.164;5.430;2023-01-29T07:50:44;4.50;99.90
51619;DHT22;38518;53.164;5.430;2023-01-29T07:53:18;4.50;99.90
51619;DHT22;38518;53.164;5.430;2023-01-29T07:55:44;4.50;99.90
51619;DHT22;38518;53.164;5.430;2023-01-29T07:58:10;4.70;99.90
51619;DHT22;38518;53.164;5.430;2023-01-29T08:00:36;5.30;99.90
51619;DHT22;38518;53.164;5.430;2023-01-29T08:03:08;4.70;99.90
51619;DHT22;38518;53.164;5.430;2023-01-29T08:05:35;4.60;99.90
51619;DHT22;38518;53.164;5.430;2023-01-29T08:08:01;4.80;99.90
51619;DHT22;38518;53.164;5.430;2023-01-29T08:10:27;4.60;99.90
51619;DHT22;38518;53.164;5.430;2023-01-29T08:12:57;4.70;99.90
51619;DHT22;38518;53.164;5.430;2023-01-29T08:15:23;4.90;99.90
51619;DHT22;38518;53.164;5.430;2023-01-29T08:17:50;4.70;99.90
51619;DHT22;38518;53.164;5.430;2023-01-29T08:20:16;4.70;99.90
51619;DHT22;38518;53.164;5.430;2023-01-29T08:22:42;4.80;99.90
51619;DHT22;38518;53.164;5.430;2023-01-29T08:25:08;5.30;99.90
51619;DHT22;38518;53.164;5.430;2023-01-29T08:27:34;4.90;99.90
51619;DHT22;38518;53.164;5.430;2023-01-29T08:30:00;5.00;99.90
51619;DHT22;38518;53.164;5.430;2023-01-29T08:32:26;5.10;99.90
51619;DHT22;38518;53.164;5.430;2023-01-29T08:34:52;4.80;99.90
51619;DHT22;38518;53.164;5.430;2023-01-29T08:37:18;4.70;99.90
51619;DHT22;38518;53.164;5.430;2023-01-29T08:39:43;5.60;99.90
51619;DHT22;38518;53.164;5.430;2023-01-29T08:42:09;5.90;99.90
51619;DHT22;38518;53.164;5.430;2023-01-29T08:44:35;4.70;99.90
51619;DHT22;38518;53.164;5.430;2023-01-29T08:47:01;5.30;99.90
51619;DHT22;38518;53.164;5.430;2023-01-29T08:49:27;3.20;99.90
51619;DHT22;38518;53.164;5.430;2023-01-29T08:51:53;5.80;99.90
51619;DHT22;38518;53.164;5.430;2023-01-29T08:54:21;4.60;99.90
51619;DHT22;38518;53.164;5.430;2023-01-29T08:56:48;5.70;99.90
51619;DHT22;38518;53.164;5.430;2023-01-29T08:59:14;4.90;99.90
51619;DHT22;38518;53.164;5.430;2023-01-29T09:01:40;5.50;99.90
51619;DHT22;38518;53.164;5.430;2023-01-29T09:04:05;4.60;99.90
51619;DHT22;38518;53.164;5.430;2023-01-29T09:06:32;4.60;99.90
51619;DHT22;38518;53.164;5.430;2023-01-29T09:08:57;4.80;99.90
51619;DHT22;38518;53.164;5.430;2023-01-29T09:11:23;5.80;99.90
51619;DHT22;38518;53.164;5.430;2023-01-29T09:13:49;4.80;99.90
51619;DHT22;38518;53.164;5.430;2023-01-29T09:16:15;4.60;99.90
51619;DHT22;38518;53.164;5.430;2023-01-29T09:18:41;5.00;99.90
51619;DHT22;38518;53.164;5.430;2023-01-29T09:21:07;5.20;99.90
51619;DHT22;38518;53.164;5.430;2023-01-29T09:23:33;5.10;99.90
51619;DHT22;38518;53.164;5.430;2023-01-29T09:25:58;5.00;1.00
51619;DHT22;38518;53.164;5.430;2023-01-29T09:28:24;4.80;99.90
51619;DHT22;38518;53.164;5.430;2023-01-29T09:30:50;5.00;1.00
51619;DHT22;38518;53.164;5.430;2023-01-29T09:33:16;4.80;1.00
51619;DHT22;38518;53.164;5.430;2023-01-29T09:35:43;5.40;1.00
51619;DHT22;38518;53.164;5.430;2023-01-29T09:38:10;6.20;1.00
51619;DHT22;38518;53.164;5.430;2023-01-29T09:43:47;5.00;1.00
51619;DHT22;38518;53.164;5.430;2023-01-29T09:46:26;5.00;1.00
51619;DHT22;38518;53.164;5.430;2023-01-29T09:49:00;5.00;1.00
51619;DHT22;38518;53.164;5.430;2023-01-29T09:51:31;5.00;1.00
51619;DHT22;38518;53.164;5.430;2023-01-29T09:54:18;5.00;1.00
51619;DHT22;38518;53.164;5.430;2023-01-29T09:56:47;4.50;1.00
51619;DHT22;38518;53.164;5.430;2023-01-29T09:59:23;3.80;1.00
51619;DHT22;38518;53.164;5.430;2023-01-29T10:13:06;5.40;1.00
51619;DHT22;38518;53.164;5.430;2023-01-29T10:16:03;5.00;1.00
51619;DHT22;38518;53.164;5.430;2023-01-29T10:18:59;6.80;1.00
51619;DHT22;38518;53.164;5.430;2023-01-29T10:21:55;5.40;1.00
51619;DHT22;38518;53.164;5.430;2023-01-29T10:24:37;4.90;1.00
51619;DHT22;38518;53.164;5.430;2023-01-29T10:27:16;5.10;1.00
51619;DHT22;38518;53.164;5.430;2023-01-29T10:29:44;6.50;1.00
51619;DHT22;38518;53.164;5.430;2023-01-29T10:32:22;5.80;1.00
51619;DHT22;38518;53.164;5.430;2023-01-29T10:37:24;5.50;1.00
51619;DHT22;38518;53.164;5.430;2023-01-29T10:39:51;5.60;1.00
51619;DHT22;38518;53.164;5.430;2023-01-29T10:42:33;6.60;1.00
51619;DHT22;38518;53.164;5.430;2023-01-29T10:51:01;5.60;1.00
51619;DHT22;38518;53.164;5.430;2023-01-29T10:56:50;5.50;1.00
51619;DHT22;38518;53.164;5.430;2023-01-29T11:02:17;5.50;1.00
51619;DHT22;38518;53.164;5.430;2023-01-29T11:04:44;5.50;1.00
51619;DHT22;38518;53.164;5.430;2023-01-29T11:07:11;6.20;1.00
51619;DHT22;38518;53.164;5.430;2023-01-29T11:12:29;5.50;1.00
51619;DHT22;38518;53.164;5.430;2023-01-29T11:15:21;8.20;1.00
51619;DHT22;38518;53.164;5.430;2023-01-29T11:18:11;5.50;1.00
51619;DHT22;38518;53.164;5.430;2023-01-29T11:20:43;5.50;1.00
51619;DHT22;38518;53.164;5.430;2023-01-29T11:23:30;5.60;1.00
51619;DHT22;38518;53.164;5.430;2023-01-29T11:25:57;5.50;99.90
51619;DHT22;38518;53.164;5.430;2023-01-29T11:28:40;5.90;99.90
51619;DHT22;38518;53.164;5.430;2023-01-29T11:33:48;5.60;99.90
51619;DHT22;38518;53.164;5.430;2023-01-29T11:36:31;6.50;99.90
51619;DHT22;38518;53.164;5.430;2023-01-29T11:39:12;5.50;99.90
51619;DHT22;38518;53.164;5.430;2023-01-29T11:44:25;5.50;1.00
51619;DHT22;38518;53.164;5.430;2023-01-29T11:46:52;5.80;1.00
51619;DHT22;38518;53.164;5.430;2023-01-29T11:49:31;6.00;1.00
51619;DHT22;38518;53.164;5.430;2023-01-29T11:52:01;5.30;1.00
51619;DHT22;38518;53.164;5.430;2023-01-29T11:54:37;5.50;1.00
51619;DHT22;38518;53.164;5.430;2023-01-29T11:57:34;5.60;1.00
51619;DHT22;38518;53.164;5.430;2023-01-29T12:00:02;5.20;1.00
51619;DHT22;38518;53.164;5.430;2023-01-29T12:02:44;5.40;1.00
51619;DHT22;38518;53.164;5.430;2023-01-29T12:05:19;5.20;1.00
51619;DHT22;38518;53.164;5.430;2023-01-29T12:07:49;5.40;1.00
51619;DHT22;38518;53.164;5.430;2023-01-29T12:10:35;5.40;1.00
51619;DHT22;38518;53.164;5.430;2023-01-29T12:15:46;5.30;1.00
51619;DHT22;38518;53.164;5.430;2023-01-29T12:18:33;6.00;1.00
51619;DHT22;38518;53.164;5.430;2023-01-29T12:21:04;6.00;1.00
51619;DHT22;38518;53.164;5.430;2023-01-29T12:26:53;5.30;6.40
51619;DHT22;38518;53.164;5.430;2023-01-29T12:32:25;5.30;70.50
51619;DHT22;38518;53.164;5.430;2023-01-29T12:35:02;5.60;96.20
51619;DHT22;38518;53.164;5.430;2023-01-29T12:40:37;5.70;99.90
51619;DHT22;38518;53.164;5.430;2023-01-29T12:43:18;5.80;99.90
51619;DHT22;38518;53.164;5.430;2023-01-29T12:45:53;5.80;99.90
51619;DHT22;38518;53.164;5.430;2023-01-29T12:48:31;5.80;99.90
51619;DHT22;38518;53.164;5.430;2023-01-29T12:51:08;6.30;99.90
51619;DHT22;38518;53.164;5.430;2023-01-29T12:53:40;6.20;99.90
51619;DHT22;38518;53.164;5.430;2023-01-29T12:56:28;6.40;99.90
51619;DHT22;38518;53.164;5.430;2023-01-29T12:58:56;6.40;99.90
51619;DHT22;38518;53.164;5.430;2023-01-29T13:01:28;6.30;77.90
51619;DHT22;38518;53.164;5.430;2023-01-29T13:04:04;6.60;40.90
51619;DHT22;38518;53.164;5.430;2023-01-29T13:06:42;6.90;1.00
51619;DHT22;38518;53.164;5.430;2023-01-29T13:09:29;6.00;1.00
51619;DHT22;38518;53.164;5.430;2023-01-29T13:12:03;5.90;1.00
51619;DHT22;38518;53.164;5.430;2023-01-29T13:14:53;7.10;1.00
51619;DHT22;38518;53.164;5.430;2023-01-29T13:17:29;5.80;1.00
51619;DHT22;38518;53.164;5.430;2023-01-29T13:20:02;6.00;1.00
51619;DHT22;38518;53.164;5.430;2023-01-29T13:22:35;6.00;1.00
51619;DHT22;38518;53.164;5.430;2023-01-29T13:25:03;6.10;1.00
51619;DHT22;38518;53.164;5.430;2023-01-29T13:27:35;5.70;1.00
51619;DHT22;38518;53.164;5.430;2023-01-29T13:30:02;5.60;1.00
51619;DHT22;38518;53.164;5.430;2023-01-29T13:32:34;5.60;1.00
51619;DHT22;38518;53.164;5.430;2023-01-29T13:35:03;5.90;1.00
51619;DHT22;38518;53.164;5.430;2023-01-29T13:37:33;5.70;1.00
51619;DHT22;38518;53.164;5.430;2023-01-29T13:40:00;5.50;1.00
51619;DHT22;38518;53.164;5.430;2023-01-29T13:42:43;5.60;1.00
51619;DHT22;38518;53.164;5.430;2023-01-29T13:45:19;6.00;1.00
51619;DHT22;38518;53.164;5.430;2023-01-29T13:47:45;5.50;1.00
51619;DHT22;38518;53.164;5.430;2023-01-29T13:50:29;5.70;1.00
51619;DHT22;38518;53.164;5.430;2023-01-29T13:53:00;5.50;5.10
51619;DHT22;38518;53.164;5.430;2023-01-29T13:55:30;5.50;10.60
51619;DHT22;38518;53.164;5.430;2023-01-29T13:58:04;5.50;15.50
51619;DHT22;38518;53.164;5.430;2023-01-29T14:07:57;5.50;3.50
51619;DHT22;38518;53.164;5.430;2023-01-29T14:10:25;5.50;3.70
51619;DHT22;38518;53.164;5.430;2023-01-29T14:15:44;6.30;9.10
51619;DHT22;38518;53.164;5.430;2023-01-29T14:21:16;5.80;13.80
51619;DHT22;38518;53.164;5.430;2023-01-29T14:23:47;5.60;7.00
51619;DHT22;38518;53.164;5.430;2023-01-29T14:28:55;5.60;4.20
51619;DHT22;38518;53.164;5.430;2023-01-29T14:34:12;5.90;1.00
51619;DHT22;38518;53.164;5.430;2023-01-29T14:36:40;6.20;1.00
51619;DHT22;38518;53.164;5.430;2023-01-29T14:39:27;5.60;1.00
51619;DHT22;38518;53.164;5.430;2023-01-29T14:41:54;5.70;1.00
51619;DHT22;38518;53.164;5.430;2023-01-29T14:49:58;5.70;1.00
51619;DHT22;38518;53.164;5.430;2023-01-29T14:52:37;5.70;1.00
51619;DHT22;38518;53.164;5.430;2023-01-29T14:55:14;5.70;1.00
51619;DHT22;38518;53.164;5.430;2023-01-29T14:57:43;5.70;1.00
51619;DHT22;38518;53.164;5.430;2023-01-29T15:00:26;6.40;1.00
51619;DHT22;38518;53.164;5.430;2023-01-29T15:02:53;5.70;1.00
51619;DHT22;38518;53.164;5.430;2023-01-29T15:05:24;5.70;1.00
51619;DHT22;38518;53.164;5.430;2023-01-29T15:10:32;5.70;1.00
51619;DHT22;38518;53.164;5.430;2023-01-29T15:13:07;5.70;1.00
51619;DHT22;38518;53.164;5.430;2023-01-29T15:15:51;5.70;1.00
51619;DHT22;38518;53.164;5.430;2023-01-29T15:18:33;5.60;99.90
51619;DHT22;38518;53.164;5.430;2023-01-29T15:21:11;5.60;99.90
51619;DHT22;38518;53.164;5.430;2023-01-29T15:23:37;5.60;99.90
51619;DHT22;38518;53.164;5.430;2023-01-29T15:26:07;5.60;99.90
51619;DHT22;38518;53.164;5.430;2023-01-29T15:28:37;5.40;99.90
51619;DHT22;38518;53.164;5.430;2023-01-29T15:31:05;4.00;99.90
51619;DHT22;38518;53.164;5.430;2023-01-29T15:33:36;6.30;99.90
51619;DHT22;38518;53.164;5.430;2023-01-29T15:36:06;5.60;99.90
51619;DHT22;38518;53.164;5.430;2023-01-29T15:38:32;5.60;99.90
51619;DHT22;38518;53.164;5.430;2023-01-29T15:41:01;5.70;99.90
51619;DHT22;38518;53.164;5.430;2023-01-29T15:43:34;5.60;99.90
51619;DHT22;38518;53.164;5.430;2023-01-29T15:46:03;5.50;99.90
51619;DHT22;38518;53.164;5.430;2023-01-29T15:48:42;5.50;99.90
51619;DHT22;38518;53.164;5.430;2023-01-29T15:51:14;5.50;99.90
51619;DHT22;38518;53.164;5.430;2023-01-29T15:56:17;5.70;99.90
51619;DHT22;38518;53.164;5.430;2023-01-29T15:58:47;5.50;99.90
51619;DHT22;38518;53.164;5.430;2023-01-29T16:01:14;5.50;99.90
51619;DHT22;38518;53.164;5.430;2023-01-29T16:03:40;5.40;99.90
51619;DHT22;38518;53.164;5.430;2023-01-29T16:06:06;5.40;99.90
51619;DHT22;38518;53.164;5.430;2023-01-29T16:08:33;5.60;99.90
51619;DHT22;38518;53.164;5.430;2023-01-29T16:11:02;5.40;99.90
51619;DHT22;38518;53.164;5.430;2023-01-29T16:13:30;5.40;99.90
51619;DHT22;38518;53.164;5.430;2023-01-29T16:16:15;5.50;99.90
51619;DHT22;38518;53.164;5.430;2023-01-29T16:18:45;5.40;99.90
51619;DHT22;38518;53.164;5.430;2023-01-29T16:23:57;5.50;99.90
51619;DHT22;38518;53.164;5.430;2023-01-29T16:26:25;5.40;99.90
51619;DHT22;38518;53.164;5.430;2023-01-29T16:28:52;5.40;99.90
51619;DHT22;38518;53.164;5.430;2023-01-29T16:31:27;5.40;99.90
51619;DHT22;38518;53.164;5.430;2023-01-29T16:33:55;4.70;99.90
51619;DHT22;38518;53.164;5.430;2023-01-29T16:36:23;5.30;99.90
51619;DHT22;38518;53.164;5.430;2023-01-29T16:39:02;5.20;99.90
51619;DHT22;38518;53.164;5.430;2023-01-29T16:41:32;5.20;99.90
51619;DHT22;38518;53.164;5.430;2023-01-29T16:44:01;5.20;1.00
51619;DHT22;38518;53.164;5.430;2023-01-29T16:46:37;5.30;1.00
51619;DHT22;38518;53.164;5.430;2023-01-29T16:54:48;5.30;1.00
51619;DHT22;38518;53.164;5.430;2023-01-29T16:57:22;5.30;1.00
51619;DHT22;38518;53.164;5.430;2023-01-29T16:59:52;5.10;99.90
51619;DHT22;38518;53.164;5.430;2023-01-29T17:02:34;5.30;99.90
51619;DHT22;38518;53.164;5.430;2023-01-29T17:05:48;5.20;99.90
51619;DHT22;38518;53.164;5.430;2023-01-29T17:07:49;5.20;99.90
51619;DHT22;38518;53.164;5.430;2023-01-29T17:10:18;5.20;99.90
51619;DHT22;38518;53.164;5.430;2023-01-29T17:13:08;5.10;99.90
51619;DHT22;38518;53.164;5.430;2023-01-29T17:18:21;5.10;99.90
51619;DHT22;38518;53.164;5.430;2023-01-29T17:20:48;5.20;99.90
51619;DHT22;38518;53.164;5.430;2023-01-29T17:23:14;5.80;99.90
51619;DHT22;38518;53.164;5.430;2023-01-29T17:25:40;5.10;99.90
51619;DHT22;38518;53.164;5.430;2023-01-29T17:28:06;5.10;99.90
51619;DHT22;38518;53.164;5.430;2023-01-29T17:30:33;5.00;99.90
51619;DHT22;38518;53.164;5.430;2023-01-29T17:33:15;4.90;99.90
51619;DHT22;38518;53.164;5.430;2023-01-29T17:35:44;4.90;99.90
51619;DHT22;38518;53.164;5.430;2023-01-29T17:38:15;4.90;99.90
51619;DHT22;38518;53.164;5.430;2023-01-29T17:40:56;4.80;99.90
51619;DHT22;38518;53.164;5.430;2023-01-29T17:43:24;4.90;99.90
51619;DHT22;38518;53.164;5.430;2023-01-29T17:45:50;5.10;99.90
51619;DHT22;38518;53.164;5.430;2023-01-29T17:48:22;4.90;99.90
51619;DHT22;38518;53.164;5.430;2023-01-29T17:50:50;4.80;99.90
51619;DHT22;38518;53.164;5.430;2023-01-29T17:53:19;4.80;99.90
51619;DHT22;38518;53.164;5.430;2023-01-29T17:55:45;4.80;99.90
51619;DHT22;38518;53.164;5.430;2023-01-29T17:58:20;6.10;99.90
51619;DHT22;38518;53.164;5.430;2023-01-29T18:00:46;4.90;99.90
51619;DHT22;38518;53.164;5.430;2023-01-29T18:03:13;4.90;99.90
51619;DHT22;38518;53.164;5.430;2023-01-29T18:05:39;6.30;99.90
51619;DHT22;38518;53.164;5.430;2023-01-29T18:08:17;4.90;99.90
51619;DHT22;38518;53.164;5.430;2023-01-29T18:10:44;5.20;99.90
51619;DHT22;38518;53.164;5.430;2023-01-29T18:13:10;4.90;99.90
51619;DHT22;38518;53.164;5.430;2023-01-29T18:15:36;4.90;99.90
51619;DHT22;38518;53.164;5.430;2023-01-29T18:18:03;4.90;99.90
51619;DHT22;38518;53.164;5.430;2023-01-29T18:20:29;5.20;99.90
51619;DHT22;38518;53.164;5.430;2023-01-29T18:22:55;4.90;99.90
51619;DHT22;38518;53.164;5.430;2023-01-29T18:25:21;5.00;99.90
51619;DHT22;38518;53.164;5.430;2023-01-29T18:27:47;5.00;99.90
51619;DHT22;38518;53.164;5.430;2023-01-29T18:30:13;3.90;99.90
51619;DHT22;38518;53.164;5.430;2023-01-29T18:32:39;5.00;99.90
51619;DHT22;38518;53.164;5.430;2023-01-29T18:35:05;5.50;99.90
51619;DHT22;38518;53.164;5.430;2023-01-29T18:37:32;5.10;99.90